createdAt,value
2018-04-21T00:01:27.533Z,928.79
2018-04-21T00:02:59.345Z,928.79
2018-04-21T00:04:31.156Z,928.79
2018-04-21T00:06:02.967Z,928.79
2018-04-21T00:07:34.779Z,928.77
2018-04-21T00:09:06.590Z,928.77
2018-04-21T00:10:38.401Z,928.76
2018-04-21T00:12:10.212Z,928.79
2018-04-21T00:13:42.024Z,928.75
2018-04-21T00:15:13.935Z,928.73
2018-04-21T00:16:45.650Z,928.78
2018-04-21T00:18:17.458Z,928.79
2018-04-21T00:19:49.269Z,928.77
2018-04-21T00:21:21.079Z,928.82
2018-04-21T00:22:52.891Z,928.82
2018-04-21T00:24:24.701Z,928.82
2018-04-21T00:25:56.513Z,928.84
2018-04-21T00:27:28.323Z,928.83
2018-04-21T00:29:00.135Z,928.84
2018-04-21T00:30:31.945Z,928.85
2018-04-21T00:32:03.756Z,928.82
2018-04-21T00:33:35.668Z,928.86
2018-04-21T00:35:07.378Z,928.84
2018-04-21T00:36:39.189Z,928.81
2018-04-21T00:38:10.999Z,928.84
2018-04-21T00:39:42.960Z,928.86
2018-04-21T00:41:14.621Z,928.82
2018-04-21T00:42:46.434Z,928.81
2018-04-21T00:44:18.243Z,928.84
2018-04-21T00:45:50.054Z,928.85
2018-04-21T00:47:21.866Z,928.87
2018-04-21T00:50:25.496Z,928.87
2018-04-21T00:51:57.397Z,928.88
2018-04-21T00:53:29.113Z,928.89
2018-04-21T00:55:00.924Z,928.89
2018-04-21T00:56:32.729Z,928.94
2018-04-21T00:58:04.540Z,928.96
2018-04-21T00:59:36.351Z,928.97
2018-04-21T01:01:08.161Z,928.95
2018-04-21T01:02:39.972Z,928.94
2018-04-21T01:04:11.783Z,928.90
2018-04-21T01:05:43.594Z,928.93
2018-04-21T01:07:15.404Z,928.94
2018-04-21T01:08:47.215Z,928.95
2018-04-21T01:10:19.133Z,928.89
2018-04-21T01:11:50.836Z,928.86
2018-04-21T01:13:22.647Z,928.90
2018-04-21T01:14:54.459Z,928.88
2018-04-21T01:16:26.268Z,928.91
2018-04-21T01:17:58.078Z,928.92
2018-04-21T01:19:29.891Z,928.89
2018-04-21T01:21:01.703Z,928.89
2018-04-21T01:22:33.511Z,928.91
2018-04-21T01:24:05.328Z,928.91
2018-04-21T01:25:37.132Z,928.94
2018-04-21T01:27:08.942Z,928.94
2018-04-21T01:28:40.902Z,928.93
2018-04-21T01:30:12.563Z,928.91
2018-04-21T01:31:44.373Z,928.95
2018-04-21T01:33:16.185Z,928.97
2018-04-21T01:34:48.095Z,928.89
2018-04-21T01:36:19.805Z,928.89
2018-04-21T01:37:51.616Z,928.84
2018-04-21T01:39:23.425Z,928.84
2018-04-21T01:40:55.387Z,928.84
2018-04-21T01:42:27.047Z,928.80
2018-04-21T01:43:58.857Z,928.77
2018-04-21T01:45:30.667Z,928.82
2018-04-21T01:47:02.578Z,928.79
2018-04-21T01:48:34.287Z,928.75
2018-04-21T01:50:06.102Z,928.76
2018-04-21T01:51:37.908Z,928.76
2018-04-21T01:53:09.719Z,928.78
2018-04-21T01:54:41.529Z,928.73
2018-04-21T01:56:13.339Z,928.76
2018-04-21T01:57:45.151Z,928.74
2018-04-21T01:59:16.960Z,928.78
2018-04-21T02:00:48.770Z,928.73
2018-04-21T02:02:20.584Z,928.76
2018-04-21T02:03:52.390Z,928.71
2018-04-21T02:05:24.304Z,928.71
2018-04-21T02:06:56.011Z,928.73
2018-04-21T02:08:27.821Z,928.71
2018-04-21T02:09:59.631Z,928.74
2018-04-21T02:11:31.443Z,928.73
2018-04-21T02:13:03.253Z,928.73
2018-04-21T02:14:35.062Z,928.72
2018-04-21T02:16:06.873Z,928.68
2018-04-21T02:17:38.683Z,928.64
2018-04-21T02:19:10.493Z,928.63
2018-04-21T02:20:42.303Z,928.62
2018-04-21T02:22:14.114Z,928.59
2018-04-21T02:23:46.324Z,928.60
2018-04-21T02:25:17.733Z,928.61
2018-04-21T02:26:49.543Z,928.61
2018-04-21T02:28:21.353Z,928.64
2018-04-21T02:29:53.163Z,928.64
2018-04-21T02:31:24.973Z,928.63
2018-04-21T02:32:56.784Z,928.67
2018-04-21T02:34:28.593Z,928.66
2018-04-21T02:36:00.675Z,928.67
2018-04-21T02:37:32.214Z,928.69
2018-04-21T02:39:04.023Z,928.69
2018-04-21T02:40:35.834Z,928.68
2018-04-21T02:42:07.744Z,928.61
2018-04-21T02:43:39.658Z,928.56
2018-04-21T02:45:11.264Z,928.60
2018-04-21T02:46:43.076Z,928.63
2018-04-21T02:48:14.883Z,928.67
2018-04-21T02:49:46.695Z,928.64
2018-04-21T02:51:18.512Z,928.68
2018-04-21T02:52:50.515Z,928.69
2018-04-21T02:54:22.122Z,928.71
2018-04-21T02:55:53.932Z,928.73
2018-04-21T02:57:25.742Z,928.71
2018-04-21T02:58:57.552Z,928.74
2018-04-21T03:00:29.461Z,928.71
2018-04-21T03:02:01.173Z,928.66
2018-04-21T03:03:32.981Z,928.67
2018-04-21T03:05:04.793Z,928.58
2018-04-21T03:06:36.851Z,928.58
2018-04-21T03:08:08.411Z,928.62
2018-04-21T03:09:40.221Z,928.53
2018-04-21T03:11:12.031Z,928.53
2018-04-21T03:12:43.843Z,928.51
2018-04-21T03:14:15.653Z,928.49
2018-04-21T03:15:47.462Z,928.47
2018-04-21T03:17:19.273Z,928.49
2018-04-21T03:18:51.487Z,928.45
2018-04-21T03:20:22.893Z,928.42
2018-04-21T03:21:54.702Z,928.43
2018-04-21T03:23:26.512Z,928.41
2018-04-21T03:24:58.322Z,928.42
2018-04-21T03:26:30.132Z,928.35
2018-04-21T03:28:01.943Z,928.30
2018-04-21T03:29:33.752Z,928.32
2018-04-21T03:31:05.560Z,928.35
2018-04-21T03:32:37.371Z,928.35
2018-04-21T03:34:09.181Z,928.34
2018-04-21T03:35:40.991Z,928.33
2018-04-21T03:37:12.908Z,928.41
2018-04-21T03:38:44.612Z,928.42
2018-04-21T03:40:16.420Z,928.38
2018-04-21T03:41:48.229Z,928.38
2018-04-21T03:43:20.039Z,928.41
2018-04-21T03:44:51.852Z,928.36
2018-04-21T03:46:23.660Z,928.36
2018-04-21T03:47:55.469Z,928.33
2018-04-21T03:49:27.279Z,928.32
2018-04-21T03:50:59.137Z,928.32
2018-04-21T03:52:30.898Z,928.29
2018-04-21T03:54:02.708Z,928.32
2018-04-21T03:55:34.618Z,928.30
2018-04-21T03:57:06.328Z,928.32
2018-04-21T03:58:38.137Z,928.34
2018-04-21T04:00:09.947Z,928.30
2018-04-21T04:03:13.567Z,928.29
2018-04-21T04:04:45.377Z,928.21
2018-04-21T04:06:17.187Z,928.29
2018-04-21T04:07:48.996Z,928.23
2018-04-21T04:09:20.806Z,928.23
2018-04-21T04:10:52.618Z,928.28
2018-04-21T04:12:24.426Z,928.24
2018-04-21T04:13:56.235Z,928.29
2018-04-21T04:15:28.145Z,928.29
2018-04-21T04:16:59.855Z,928.24
2018-04-21T04:18:31.666Z,928.24
2018-04-21T04:20:03.478Z,928.22
2018-04-21T04:21:35.285Z,928.16
2018-04-21T04:23:07.096Z,928.16
2018-04-21T04:24:38.905Z,928.14
2018-04-21T04:26:10.715Z,928.14
2018-04-21T04:27:42.524Z,928.17
2018-04-21T04:29:14.334Z,928.14
2018-04-21T04:30:46.143Z,928.11
2018-04-21T04:32:17.952Z,928.08
2018-04-21T04:33:49.962Z,928.10
2018-04-21T04:35:21.571Z,928.09
2018-04-21T04:36:53.386Z,928.09
2018-04-21T04:38:25.191Z,928.07
2018-04-21T04:39:57.252Z,928.14
2018-04-21T04:41:28.813Z,928.11
2018-04-21T04:43:00.620Z,928.10
2018-04-21T04:44:32.431Z,928.10
2018-04-21T04:46:04.390Z,928.10
2018-04-21T04:47:36.049Z,928.11
2018-04-21T04:49:07.864Z,928.08
2018-04-21T04:50:39.668Z,928.05
2018-04-21T04:52:12.028Z,928.01
2018-04-21T04:53:43.287Z,927.98
2018-04-21T04:55:15.100Z,927.97
2018-04-21T04:56:46.912Z,927.96
2018-04-21T04:58:18.716Z,927.94
2018-04-21T04:59:50.525Z,927.98
2018-04-21T05:01:22.336Z,927.89
2018-04-21T05:02:54.145Z,927.87
2018-04-21T05:04:25.954Z,927.84
2018-04-21T05:05:57.763Z,927.79
2018-04-21T05:07:29.573Z,927.79
2018-04-21T05:09:01.382Z,927.79
2018-04-21T05:10:33.541Z,927.75
2018-04-21T05:12:05.000Z,927.74
2018-04-21T05:13:36.810Z,927.69
2018-04-21T05:15:08.619Z,927.70
2018-04-21T05:16:40.578Z,927.72
2018-04-21T05:18:12.242Z,927.64
2018-04-21T05:19:44.047Z,927.63
2018-04-21T05:21:15.856Z,927.57
2018-04-21T05:22:47.665Z,927.57
2018-04-21T05:24:19.477Z,927.53
2018-04-21T05:25:51.284Z,927.52
2018-04-21T05:27:23.094Z,927.55
2018-04-21T05:28:55.004Z,927.49
2018-04-21T05:30:26.714Z,927.50
2018-04-21T05:31:58.523Z,927.45
2018-04-21T05:33:30.332Z,927.49
2018-04-21T05:35:02.142Z,927.42
2018-04-21T05:36:33.952Z,927.40
2018-04-21T05:38:05.760Z,927.41
2018-04-21T05:39:37.570Z,927.38
2018-04-21T05:41:09.629Z,927.36
2018-04-21T05:42:41.193Z,927.32
2018-04-21T05:44:12.998Z,927.35
2018-04-21T05:45:44.807Z,927.35
2018-04-21T05:47:16.716Z,927.31
2018-04-21T05:48:48.425Z,927.33
2018-04-21T05:50:20.235Z,927.28
2018-04-21T05:51:52.044Z,927.22
2018-04-21T05:53:23.859Z,927.24
2018-04-21T05:54:55.662Z,927.23
2018-04-21T05:56:27.472Z,927.25
2018-04-21T05:57:59.281Z,927.30
2018-04-21T05:59:31.090Z,927.31
2018-04-21T06:01:02.899Z,927.30
2018-04-21T06:02:34.708Z,927.29
2018-04-21T06:04:06.522Z,927.22
2018-04-21T06:05:38.527Z,927.27
2018-04-21T06:07:10.137Z,927.22
2018-04-21T06:08:41.946Z,927.24
2018-04-21T06:10:13.755Z,927.23
2018-04-21T06:11:45.564Z,927.27
2018-04-21T06:13:17.373Z,927.28
2018-04-21T06:14:49.182Z,927.32
2018-04-21T06:16:20.991Z,927.27
2018-04-21T06:17:52.950Z,927.28
2018-04-21T06:19:24.610Z,927.31
2018-04-21T06:20:56.421Z,927.33
2018-04-21T06:22:28.227Z,927.31
2018-04-21T06:24:00.137Z,927.34
2018-04-21T06:25:31.845Z,927.32
2018-04-21T06:27:03.655Z,927.31
2018-04-21T06:28:35.464Z,927.34
2018-04-21T06:30:07.274Z,927.33
2018-04-21T06:31:39.083Z,927.31
2018-04-21T06:33:10.891Z,927.34
2018-04-21T06:34:42.700Z,927.32
2018-04-21T06:36:14.509Z,927.37
2018-04-21T06:37:46.318Z,927.37
2018-04-21T06:39:18.127Z,927.28
2018-04-21T06:40:49.942Z,927.25
2018-04-21T06:42:21.849Z,927.25
2018-04-21T06:43:53.555Z,927.28
2018-04-21T06:45:25.364Z,927.26
2018-04-21T06:46:57.173Z,927.30
2018-04-21T06:48:28.982Z,927.32
2018-04-21T06:50:00.792Z,927.30
2018-04-21T06:51:32.601Z,927.29
2018-04-21T06:53:04.471Z,927.26
2018-04-21T06:54:36.219Z,927.27
2018-04-21T06:56:08.028Z,927.31
2018-04-21T06:57:39.837Z,927.33
2018-04-21T06:59:11.645Z,927.32
2018-04-21T07:00:43.555Z,927.31
2018-04-21T07:02:15.263Z,927.26
2018-04-21T07:03:47.073Z,927.25
2018-04-21T07:05:18.882Z,927.24
2018-04-21T07:06:50.993Z,927.26
2018-04-21T07:08:22.500Z,927.25
2018-04-21T07:09:54.309Z,927.25
2018-04-21T07:11:26.118Z,927.22
2018-04-21T07:12:57.927Z,927.25
2018-04-21T07:14:29.736Z,927.27
2018-04-21T07:16:01.547Z,927.20
2018-04-21T07:17:33.354Z,927.17
2018-04-21T07:19:05.263Z,927.19
2018-04-21T07:20:36.973Z,927.17
2018-04-21T07:22:08.783Z,927.16
2018-04-21T07:25:12.402Z,927.19
2018-04-21T07:26:44.208Z,927.19
2018-04-21T07:28:16.016Z,927.24
2018-04-21T07:29:47.825Z,927.26
2018-04-21T07:31:19.634Z,927.22
2018-04-21T07:34:23.252Z,927.25
2018-04-21T07:35:55.083Z,927.20
2018-04-21T07:37:27.070Z,927.20
2018-04-21T07:38:58.679Z,927.16
2018-04-21T07:40:30.487Z,927.16
2018-04-21T07:42:02.297Z,927.19
2018-04-21T07:43:34.106Z,927.17
2018-04-21T07:45:05.913Z,927.22
2018-04-21T07:46:37.726Z,927.21
2018-04-21T07:48:09.532Z,927.22
2018-04-21T07:49:41.341Z,927.19
2018-04-21T07:51:13.150Z,927.21
2018-04-21T07:52:44.959Z,927.14
2018-04-21T07:54:16.767Z,927.16
2018-04-21T07:55:48.677Z,927.17
2018-04-21T07:57:20.385Z,927.18
2018-04-21T07:58:52.194Z,927.17
2018-04-21T08:00:24.006Z,927.22
2018-04-21T08:01:55.813Z,927.16
2018-04-21T08:03:27.622Z,927.11
2018-04-21T08:04:59.428Z,927.10
2018-04-21T08:06:31.242Z,927.11
2018-04-21T08:08:03.146Z,927.10
2018-04-21T08:09:34.854Z,927.15
2018-04-21T08:11:06.663Z,927.11
2018-04-21T08:12:38.471Z,927.17
2018-04-21T08:14:10.382Z,927.18
2018-04-21T08:15:42.092Z,927.14
2018-04-21T08:17:13.897Z,927.14
2018-04-21T08:18:45.706Z,927.14
2018-04-21T08:20:17.515Z,927.20
2018-04-21T08:21:49.323Z,927.21
2018-04-21T08:23:21.132Z,927.25
2018-04-21T08:24:52.940Z,927.25
2018-04-21T08:26:24.748Z,927.30
2018-04-21T08:27:56.556Z,927.26
2018-04-21T08:29:28.371Z,927.26
2018-04-21T08:31:00.174Z,927.25
2018-04-21T08:32:32.083Z,927.22
2018-04-21T08:34:03.790Z,927.23
2018-04-21T08:35:35.599Z,927.23
2018-04-21T08:37:07.407Z,927.21
2018-04-21T08:38:39.316Z,927.28
2018-04-21T08:40:11.024Z,927.22
2018-04-21T08:41:42.832Z,927.25
2018-04-21T08:43:14.641Z,927.26
2018-04-21T08:44:46.699Z,927.33
2018-04-21T08:46:18.257Z,927.35
2018-04-21T08:47:50.065Z,927.40
2018-04-21T08:49:21.876Z,927.37
2018-04-21T08:50:53.935Z,927.43
2018-04-21T08:52:25.490Z,927.48
2018-04-21T08:53:57.297Z,927.49
2018-04-21T08:55:29.106Z,927.55
2018-04-21T08:57:00.914Z,927.54
2018-04-21T08:58:32.723Z,927.57
2018-04-21T09:00:04.532Z,927.55
2018-04-21T09:01:36.341Z,927.53
2018-04-21T09:03:08.151Z,927.53
2018-04-21T09:04:39.958Z,927.53
2018-04-21T09:06:11.766Z,927.49
2018-04-21T09:07:43.575Z,927.48
2018-04-21T09:09:15.584Z,927.53
2018-04-21T09:10:47.195Z,927.52
2018-04-21T09:12:19.001Z,927.50
2018-04-21T09:13:50.812Z,927.54
2018-04-21T09:15:22.869Z,927.53
2018-04-21T09:16:54.435Z,927.52
2018-04-21T09:18:26.235Z,927.53
2018-04-21T09:19:58.043Z,927.54
2018-04-21T09:21:29.852Z,927.59
2018-04-21T09:23:01.660Z,927.62
2018-04-21T09:24:33.468Z,927.64
2018-04-21T09:26:05.276Z,927.63
2018-04-21T09:27:37.890Z,927.66
2018-04-21T09:29:08.897Z,927.69
2018-04-21T09:30:40.701Z,927.70
2018-04-21T09:32:12.509Z,927.71
2018-04-21T09:33:44.324Z,927.71
2018-04-21T09:35:16.328Z,927.79
2018-04-21T09:36:47.935Z,927.77
2018-04-21T09:38:19.742Z,927.77
2018-04-21T09:39:51.652Z,927.84
2018-04-21T09:41:23.360Z,927.94
2018-04-21T09:42:55.168Z,927.86
2018-04-21T09:44:26.977Z,927.90
2018-04-21T09:45:59.137Z,927.88
2018-04-21T09:47:30.595Z,927.95
2018-04-21T09:49:02.405Z,927.93
2018-04-21T09:52:06.025Z,928.00
2018-04-21T09:53:37.835Z,928.00
2018-04-21T09:55:09.650Z,928.03
2018-04-21T09:56:41.456Z,928.04
2018-04-21T09:58:13.417Z,928.08
2018-04-21T09:59:45.079Z,928.06
2018-04-21T10:01:16.890Z,928.09
2018-04-21T10:02:48.701Z,928.11
2018-04-21T10:04:20.615Z,928.07
2018-04-21T10:05:52.328Z,928.18
2018-04-21T10:08:56.153Z,928.18
2018-04-21T10:10:28.168Z,928.14
2018-04-21T10:11:59.578Z,928.19
2018-04-21T10:13:31.390Z,928.15
2018-04-21T10:15:03.206Z,928.16
2018-04-21T10:16:35.270Z,928.21
2018-04-21T10:18:06.830Z,928.23
2018-04-21T10:19:38.643Z,928.27
2018-04-21T10:21:10.458Z,928.25
2018-04-21T10:22:42.372Z,928.23
2018-04-21T10:25:45.904Z,928.28
2018-04-21T10:27:17.716Z,928.30
2018-04-21T10:28:50.037Z,928.33
2018-04-21T10:30:21.346Z,928.38
2018-04-21T10:31:53.162Z,928.35
2018-04-21T10:33:24.983Z,928.33
2018-04-21T10:34:56.796Z,928.34
2018-04-21T10:36:28.612Z,928.37
2018-04-21T10:38:00.429Z,928.33
2018-04-21T10:39:32.246Z,928.35
2018-04-21T10:42:36.186Z,928.38
2018-04-21T10:44:07.702Z,928.45
2018-04-21T10:45:39.516Z,928.44
2018-04-21T10:47:11.336Z,928.44
2018-04-21T10:48:43.155Z,928.45
2018-04-21T10:50:14.974Z,928.41
2018-04-21T10:53:18.611Z,928.47
2018-04-21T10:54:50.582Z,928.49
2018-04-21T10:56:22.258Z,928.55
2018-04-21T10:59:25.891Z,928.46
2018-04-21T11:00:58.345Z,928.47
2018-04-21T11:02:29.530Z,928.50
2018-04-21T11:04:01.350Z,928.46
2018-04-21T11:05:33.173Z,928.46
2018-04-21T11:07:04.989Z,928.49
2018-04-21T11:08:36.808Z,928.52
2018-04-21T11:10:08.629Z,928.54
2018-04-21T11:13:12.269Z,928.58
2018-04-21T11:16:15.909Z,928.63
2018-04-21T11:17:48.033Z,928.64
2018-04-21T11:19:19.649Z,928.67
2018-04-21T11:20:51.369Z,928.71
2018-04-21T11:22:23.189Z,928.72
2018-04-21T11:23:55.009Z,928.78
2018-04-21T11:25:26.829Z,928.72
2018-04-21T11:26:58.651Z,928.76
2018-04-21T11:28:30.470Z,928.77
2018-04-21T11:30:02.292Z,928.74
2018-04-21T11:31:34.111Z,928.75
2018-04-21T11:33:05.940Z,928.80
2018-04-21T11:34:38.060Z,928.76
2018-04-21T11:36:09.577Z,928.74
2018-04-21T11:37:42.231Z,928.75
2018-04-21T11:39:13.216Z,928.74
2018-04-21T11:40:45.038Z,928.78
2018-04-21T11:42:16.860Z,928.81
2018-04-21T11:43:48.782Z,928.83
2018-04-21T11:45:20.503Z,928.81
2018-04-21T11:46:52.325Z,928.83
2018-04-21T11:48:24.152Z,928.81
2018-04-21T11:49:56.173Z,928.81
2018-04-21T11:51:28.096Z,928.75
2018-04-21T11:52:59.616Z,928.80
2018-04-21T11:54:31.438Z,928.84
2018-04-21T11:56:03.359Z,928.82
2018-04-21T11:57:35.081Z,928.79
2018-04-21T11:59:06.907Z,928.84
2018-04-21T12:00:38.724Z,928.78
2018-04-21T12:02:10.547Z,928.79
2018-04-21T12:03:42.571Z,928.78
2018-04-21T12:05:14.191Z,928.80
2018-04-21T12:06:46.215Z,928.83
2018-04-21T12:08:17.835Z,928.85
2018-04-21T12:09:49.657Z,928.88
2018-04-21T12:11:21.479Z,928.85
2018-04-21T12:12:53.300Z,928.87
2018-04-21T12:14:25.326Z,928.85
2018-04-21T12:15:56.945Z,928.88
2018-04-21T12:17:28.768Z,928.86
2018-04-21T12:19:00.622Z,928.86
2018-04-21T12:22:04.538Z,928.97
2018-04-21T12:25:07.876Z,928.99
2018-04-21T12:26:39.701Z,929.00
2018-04-21T12:28:11.520Z,928.98
2018-04-21T12:29:43.354Z,929.05
2018-04-21T12:31:15.165Z,929.07
2018-04-21T12:32:46.987Z,929.08
2018-04-21T12:34:18.915Z,929.06
2018-04-21T12:35:50.631Z,929.03
2018-04-21T12:37:22.454Z,929.02
2018-04-21T12:38:54.480Z,929.00
2018-04-21T12:41:57.927Z,929.01
2018-04-21T12:43:30.274Z,929.10
2018-04-21T12:45:01.568Z,929.11
2018-04-21T12:46:33.389Z,929.05
2018-04-21T12:48:05.212Z,929.12
2018-04-21T12:49:37.039Z,929.14
2018-04-21T12:51:08.858Z,929.13
2018-04-21T12:52:40.683Z,929.12
2018-04-21T12:54:13.056Z,929.07
2018-04-21T12:57:16.151Z,929.11
2018-04-21T12:58:48.177Z,929.12
2018-04-21T13:00:20.162Z,929.09
2018-04-21T13:01:51.628Z,929.10
2018-04-21T13:03:23.449Z,929.13
2018-04-21T13:04:55.472Z,929.13
2018-04-21T13:06:27.095Z,929.15
2018-04-21T13:07:58.916Z,929.12
2018-04-21T13:09:30.740Z,929.05
2018-04-21T13:11:02.766Z,929.10
2018-04-21T13:14:06.514Z,929.01
2018-04-21T13:17:09.858Z,929.02
2018-04-21T13:18:41.683Z,929.04
2018-04-21T13:20:13.506Z,929.05
2018-04-21T13:21:45.330Z,929.05
2018-04-21T13:23:17.154Z,928.97
2018-04-21T13:24:48.979Z,928.93
2018-04-21T13:27:52.630Z,928.89
2018-04-21T13:29:24.449Z,928.94
2018-04-21T13:34:00.224Z,928.85
2018-04-21T13:35:32.050Z,928.84
2018-04-21T13:37:03.569Z,928.83
2018-04-21T13:38:35.392Z,928.82
2018-04-21T13:40:07.219Z,928.81
2018-04-21T13:41:39.354Z,928.78
2018-04-21T13:43:11.801Z,928.77
2018-04-21T13:44:42.691Z,928.72
2018-04-21T13:46:14.514Z,928.69
2018-04-21T13:47:46.339Z,928.75
2018-04-21T13:49:18.163Z,928.66
2018-04-21T13:52:22.118Z,928.71
2018-04-21T13:53:53.636Z,928.69
2018-04-21T13:55:25.460Z,928.66
2018-04-21T13:56:57.815Z,928.65
2018-04-21T13:58:29.107Z,928.67
2018-04-21T14:00:00.934Z,928.61
2018-04-21T14:01:32.756Z,928.62
2018-04-21T14:03:04.580Z,928.66
2018-04-21T14:06:08.580Z,928.59
2018-04-21T14:09:11.882Z,928.64
2018-04-21T14:10:44.007Z,928.61
2018-04-21T14:12:15.626Z,928.65
2018-04-21T14:13:47.350Z,928.61
2018-04-21T14:15:19.178Z,928.60
2018-04-21T14:16:50.998Z,928.55
2018-04-21T14:18:22.823Z,928.56
2018-04-21T14:19:54.647Z,928.53
2018-04-21T14:21:26.476Z,928.54
2018-04-21T14:22:58.501Z,928.55
2018-04-21T14:24:30.423Z,928.53
2018-04-21T14:26:02.462Z,928.48
2018-04-21T14:27:34.301Z,928.43
2018-04-21T14:29:05.601Z,928.52
2018-04-21T14:30:37.520Z,928.49
2018-04-21T14:32:09.245Z,928.47
2018-04-21T14:33:41.073Z,928.49
2018-04-21T14:35:13.111Z,928.47
2018-04-21T14:36:44.721Z,928.39
2018-04-21T14:38:16.546Z,928.40
2018-04-21T14:41:20.196Z,928.40
2018-04-21T14:44:24.200Z,928.33
2018-04-21T14:45:55.674Z,928.36
2018-04-21T14:47:27.501Z,928.27
2018-04-21T14:48:59.528Z,928.28
2018-04-21T14:50:31.348Z,928.27
2018-04-21T14:52:02.973Z,928.29
2018-04-21T14:53:34.800Z,928.29
2018-04-21T14:55:06.625Z,928.26
2018-04-21T14:56:38.448Z,928.22
2018-04-21T14:58:10.274Z,928.17
2018-04-21T14:59:42.101Z,928.13
2018-04-21T15:01:13.943Z,928.09
2018-04-21T15:02:46.053Z,928.11
2018-04-21T15:05:49.413Z,928.04
2018-04-21T15:07:21.227Z,927.99
2018-04-21T15:08:53.304Z,927.98
2018-04-21T15:10:24.892Z,928.00
2018-04-21T15:11:56.704Z,927.97
2018-04-21T15:13:28.537Z,927.90
2018-04-21T15:15:00.889Z,927.92
2018-04-21T15:16:32.184Z,927.90
2018-04-21T15:19:35.837Z,927.84
2018-04-21T15:21:07.863Z,927.82
2018-04-21T15:22:39.488Z,927.80
2018-04-21T15:24:11.517Z,927.82
2018-04-21T15:25:43.144Z,927.77
2018-04-21T15:27:15.069Z,927.77
2018-04-21T15:30:20.036Z,927.73
2018-04-21T15:31:50.445Z,927.75
2018-04-21T15:33:22.272Z,927.68
2018-04-21T15:34:54.402Z,927.64
2018-04-21T15:36:25.928Z,927.64
2018-04-21T15:37:57.755Z,927.56
2018-04-21T15:39:29.581Z,927.56
2018-04-21T15:41:01.405Z,927.53
2018-04-21T15:42:33.232Z,927.54
2018-04-21T15:44:05.060Z,927.48
2018-04-21T15:45:36.988Z,927.39
2018-04-21T15:47:08.717Z,927.44
2018-04-21T15:48:40.541Z,927.46
2018-04-21T15:50:12.573Z,927.41
2018-04-21T15:51:44.496Z,927.34
2018-04-21T15:53:16.022Z,927.33
2018-04-21T15:54:47.894Z,927.34
2018-04-21T15:56:19.673Z,927.36
2018-04-21T15:57:51.501Z,927.20
2018-04-21T15:59:23.326Z,927.29
2018-04-21T16:00:55.153Z,927.28
2018-04-21T16:02:26.980Z,927.25
2018-04-21T16:03:58.908Z,927.21
2018-04-21T16:07:02.464Z,927.22
2018-04-21T16:08:34.862Z,927.17
2018-04-21T16:10:06.649Z,927.11
2018-04-21T16:11:37.946Z,927.19
2018-04-21T16:13:10.307Z,927.18
2018-04-21T16:14:41.599Z,927.17
2018-04-21T16:16:13.425Z,927.11
2018-04-21T16:17:45.253Z,927.11
2018-04-21T16:19:17.078Z,927.11
2018-04-21T16:20:48.905Z,927.10
2018-04-21T16:22:20.937Z,927.08
2018-04-21T16:23:52.561Z,927.12
2018-04-21T16:27:02.792Z,927.11
2018-04-21T16:29:59.870Z,927.15
2018-04-21T16:31:31.701Z,927.14
2018-04-21T16:33:03.525Z,927.19
2018-04-21T16:34:35.352Z,927.21
2018-04-21T16:36:07.177Z,927.16
2018-04-21T16:37:39.206Z,927.18
2018-04-21T16:39:10.829Z,927.22
2018-04-21T16:42:14.730Z,927.17
2018-04-21T16:43:46.508Z,927.08
2018-04-21T16:45:18.332Z,927.11
2018-04-21T16:46:50.157Z,926.89
2018-04-21T16:48:21.779Z,926.80
2018-04-21T16:49:53.604Z,926.79
2018-04-21T16:51:25.427Z,926.76
2018-04-21T16:54:29.330Z,926.84
2018-04-21T16:56:00.903Z,926.88
2018-04-21T16:57:32.725Z,926.90
2018-04-21T16:59:04.550Z,926.89
2018-04-21T17:00:36.774Z,926.87
2018-04-21T17:02:08.193Z,926.83
2018-04-21T17:05:12.144Z,926.75
2018-04-21T17:06:43.663Z,926.75
2018-04-21T17:08:15.486Z,926.76
2018-04-21T17:11:19.132Z,926.72
2018-04-21T17:12:51.261Z,926.74
2018-04-21T17:14:22.980Z,926.75
2018-04-21T17:15:54.602Z,926.75
2018-04-21T17:17:26.422Z,926.78
2018-04-21T17:18:58.547Z,926.77
2018-04-21T17:22:01.890Z,926.64
2018-04-21T17:23:33.718Z,926.67
2018-04-21T17:25:05.637Z,926.65
2018-04-21T17:26:37.359Z,926.64
2018-04-21T17:28:09.186Z,926.59
2018-04-21T17:31:12.836Z,926.61
2018-04-21T17:32:44.657Z,926.61
2018-04-21T17:34:16.533Z,926.61
2018-04-21T17:35:48.608Z,926.63
2018-04-21T17:37:20.229Z,926.59
2018-04-21T17:40:24.082Z,926.60
2018-04-21T17:41:55.602Z,926.55
2018-04-21T17:43:27.426Z,926.55
2018-04-21T17:44:59.454Z,926.58
2018-04-21T17:46:31.075Z,926.59
2018-04-21T17:48:02.967Z,926.54
2018-04-21T17:49:34.725Z,926.57
2018-04-21T17:51:06.549Z,926.53
2018-04-21T17:52:38.373Z,926.52
2018-04-21T17:54:10.198Z,926.48
2018-04-21T17:57:13.956Z,926.52
2018-04-21T17:58:45.672Z,926.48
2018-04-21T18:00:17.495Z,926.42
2018-04-21T18:01:49.321Z,926.44
2018-04-21T18:03:21.144Z,926.48
2018-04-21T18:06:24.796Z,926.50
2018-04-21T18:07:56.617Z,926.45
2018-04-21T18:09:28.442Z,926.42
2018-04-21T18:11:00.265Z,926.41
2018-04-21T18:12:32.090Z,926.39
2018-04-21T18:14:03.913Z,926.40
2018-04-21T18:15:35.868Z,926.38
2018-04-21T18:17:07.560Z,926.43
2018-04-21T18:18:39.383Z,926.41
2018-04-21T18:20:11.207Z,926.41
2018-04-21T18:21:43.031Z,926.44
2018-04-21T18:23:14.854Z,926.44
2018-04-21T18:26:18.501Z,926.44
2018-04-21T18:27:50.335Z,926.51
2018-04-21T18:29:22.451Z,926.46
2018-04-21T18:30:54.011Z,926.50
2018-04-21T18:32:26.324Z,926.47
2018-04-21T18:33:57.717Z,926.53
2018-04-21T18:35:29.442Z,926.48
2018-04-21T18:37:01.263Z,926.51
2018-04-21T18:38:33.086Z,926.47
2018-04-21T18:40:04.910Z,926.52
2018-04-21T18:43:08.554Z,926.49
2018-04-21T18:44:40.681Z,926.47
2018-04-21T18:46:12.202Z,926.56
2018-04-21T18:47:44.229Z,926.55
2018-04-21T18:49:15.844Z,926.65
2018-04-21T18:50:47.666Z,926.58
2018-04-21T18:52:19.701Z,926.62
2018-04-21T18:53:51.309Z,926.62
2018-04-21T18:55:23.134Z,926.62
2018-04-21T18:58:26.876Z,926.70
2018-04-21T19:01:30.421Z,926.69
2018-04-21T19:03:02.242Z,926.70
2018-04-21T19:06:05.882Z,926.74
2018-04-21T19:07:37.708Z,926.74
2018-04-21T19:09:09.525Z,926.74
2018-04-21T19:10:41.345Z,926.73
2018-04-21T19:12:13.267Z,926.76
2018-04-21T19:15:16.809Z,926.76
2018-04-21T19:16:48.628Z,926.78
2018-04-21T19:18:20.452Z,926.76
2018-04-21T19:19:52.336Z,926.80
2018-04-21T19:21:24.091Z,926.90
2018-04-21T19:22:55.912Z,926.89
2018-04-21T19:24:27.731Z,926.84
2018-04-21T19:25:59.554Z,926.80
2018-04-21T19:27:31.372Z,926.84
2018-04-21T19:29:03.192Z,926.81
2018-04-21T19:30:35.234Z,926.90
2018-04-21T19:32:06.831Z,926.83
2018-04-21T19:33:38.649Z,926.88
2018-04-21T19:35:10.470Z,926.94
2018-04-21T19:36:42.287Z,926.84
2018-04-21T19:38:14.111Z,926.86
2018-04-21T19:39:45.927Z,926.91
2018-04-21T19:41:18.048Z,926.95
2018-04-21T19:42:49.564Z,926.92
2018-04-21T19:44:21.383Z,926.96
2018-04-21T19:45:53.200Z,926.97
2018-04-21T19:47:25.018Z,926.98
2018-04-21T19:48:56.937Z,926.97
2018-04-21T19:50:28.665Z,926.95
2018-04-21T19:52:00.475Z,926.92
2018-04-21T19:53:32.293Z,926.97
2018-04-21T19:55:04.110Z,926.98
2018-04-21T19:56:36.723Z,927.03
2018-04-21T19:58:07.747Z,927.07
2018-04-21T20:01:11.685Z,927.04
2018-04-21T20:02:43.200Z,927.02
2018-04-21T20:04:15.018Z,927.06
2018-04-21T20:05:46.838Z,927.02
2018-04-21T20:07:18.754Z,927.01
2018-04-21T20:08:50.473Z,927.00
2018-04-21T20:10:22.286Z,926.99
2018-04-21T20:11:54.103Z,926.98
2018-04-21T20:13:25.921Z,926.94
2018-04-21T20:14:58.046Z,926.97
2018-04-21T20:16:29.623Z,927.02
2018-04-21T20:18:01.370Z,926.97
2018-04-21T20:19:33.185Z,926.99